createdAt,value
2017-06-05T00:00:20.915Z,0.00
2017-06-05T00:01:20.829Z,0.00
2017-06-05T00:02:21.020Z,0.00
2017-06-05T00:03:20.919Z,0.00
2017-06-05T00:04:20.917Z,0.00
2017-06-05T00:05:20.924Z,0.00
2017-06-05T00:06:20.916Z,0.00
2017-06-05T00:07:20.929Z,0.00
2017-06-05T00:08:20.916Z,0.00
2017-06-05T00:09:20.915Z,0.00
2017-06-05T00:10:20.918Z,0.00
2017-06-05T00:11:20.933Z,0.00
2017-06-05T00:12:20.929Z,0.00
2017-06-05T00:13:20.923Z,0.00
2017-06-05T00:14:20.917Z,0.00
2017-06-05T00:15:20.923Z,0.00
2017-06-05T00:16:21.026Z,0.00
2017-06-05T00:17:20.909Z,0.00
2017-06-05T00:18:20.909Z,0.00
2017-06-05T00:19:20.909Z,0.00
2017-06-05T00:20:20.906Z,0.00
2017-06-05T00:21:20.907Z,0.00
2017-06-05T00:22:20.912Z,0.00
2017-06-05T00:23:20.911Z,0.00
2017-06-05T00:24:20.918Z,0.00
2017-06-05T00:25:20.910Z,0.00
2017-06-05T00:26:20.915Z,0.00
2017-06-05T00:27:20.947Z,0.00
2017-06-05T00:28:20.863Z,0.00
2017-06-05T00:29:20.936Z,0.00
2017-06-05T00:30:20.937Z,0.00
2017-06-05T00:31:20.910Z,0.00
2017-06-05T00:32:20.949Z,0.00
2017-06-05T00:33:20.942Z,0.00
2017-06-05T00:34:20.867Z,0.00
2017-06-05T00:35:20.932Z,0.00
2017-06-05T00:36:20.955Z,0.00
2017-06-05T00:37:20.914Z,0.00
2017-06-05T00:38:20.917Z,0.00
2017-06-05T00:39:20.842Z,0.00
2017-06-05T00:40:20.918Z,0.00
2017-06-05T00:41:20.916Z,0.00
2017-06-05T00:42:20.919Z,0.00
2017-06-05T00:43:20.918Z,0.00
2017-06-05T00:44:20.920Z,0.00
2017-06-05T00:45:20.921Z,0.00
2017-06-05T00:46:20.898Z,0.00
2017-06-05T00:47:20.901Z,0.00
2017-06-05T00:48:20.902Z,0.00
2017-06-05T00:49:20.903Z,0.00
2017-06-05T00:50:20.902Z,0.00
2017-06-05T00:51:20.900Z,0.00
2017-06-05T00:52:20.861Z,0.00
2017-06-05T00:53:20.860Z,0.00
2017-06-05T00:54:20.822Z,0.00
2017-06-05T00:55:20.900Z,0.00
2017-06-05T00:56:20.973Z,0.00
2017-06-05T00:57:20.946Z,0.00
2017-06-05T00:58:20.944Z,0.00
2017-06-05T00:59:20.941Z,0.00
2017-06-05T01:00:20.944Z,0.00
2017-06-05T01:01:20.958Z,0.00
2017-06-05T01:02:20.947Z,0.00
2017-06-05T01:03:20.960Z,0.00
2017-06-05T01:04:20.949Z,0.00
2017-06-05T01:05:20.950Z,0.00
2017-06-05T01:06:20.953Z,0.00
2017-06-05T01:07:20.950Z,0.00
2017-06-05T01:08:20.948Z,0.00
2017-06-05T01:09:20.871Z,0.00
2017-06-05T01:10:20.949Z,0.00
2017-06-05T01:11:20.948Z,0.00
2017-06-05T01:12:20.949Z,0.00
2017-06-05T01:13:20.952Z,0.00
2017-06-05T01:14:20.951Z,0.00
2017-06-05T01:15:20.952Z,0.00
2017-06-05T01:16:20.955Z,0.00
2017-06-05T01:17:20.969Z,0.00
2017-06-05T01:18:20.973Z,0.00
2017-06-05T01:19:20.979Z,0.00
2017-06-05T01:20:20.936Z,0.00
2017-06-05T01:21:20.970Z,0.00
2017-06-05T01:22:20.886Z,0.00
2017-06-05T01:23:20.894Z,0.00
2017-06-05T01:24:20.972Z,0.00
2017-06-05T01:25:20.956Z,0.00
2017-06-05T01:26:20.973Z,0.00
2017-06-05T01:27:20.963Z,0.00
2017-06-05T01:28:20.963Z,0.00
2017-06-05T01:29:20.962Z,0.00
2017-06-05T01:30:20.966Z,0.00
2017-06-05T01:31:20.962Z,0.00
2017-06-05T01:32:20.959Z,0.00
2017-06-05T01:33:20.961Z,0.00
2017-06-05T01:34:20.965Z,0.00
2017-06-05T01:35:20.876Z,0.00
2017-06-05T01:36:20.963Z,0.00
2017-06-05T01:37:20.979Z,0.00
2017-06-05T01:38:20.984Z,0.00
2017-06-05T01:39:20.901Z,0.00
2017-06-05T01:40:20.978Z,0.00
2017-06-05T01:41:20.899Z,0.00
2017-06-05T01:42:20.991Z,0.00
2017-06-05T01:43:20.983Z,0.00
2017-06-05T01:44:20.926Z,0.00
2017-06-05T01:45:20.918Z,0.00
2017-06-05T01:46:20.962Z,0.00
2017-06-05T01:47:20.981Z,0.00
2017-06-05T01:48:20.971Z,0.00
2017-06-05T01:49:20.971Z,0.00
2017-06-05T01:50:20.975Z,0.00
2017-06-05T01:51:20.983Z,0.00
2017-06-05T01:52:20.991Z,0.00
2017-06-05T01:53:21.003Z,0.00
2017-06-05T01:54:20.980Z,0.00
2017-06-05T01:55:20.976Z,0.00
2017-06-05T01:56:20.979Z,0.00
2017-06-05T01:57:20.975Z,0.00
2017-06-05T01:58:21.058Z,0.00
2017-06-05T01:59:20.974Z,0.00
2017-06-05T02:00:20.985Z,0.00
2017-06-05T02:01:20.974Z,0.00
2017-06-05T02:02:20.968Z,0.00
2017-06-05T02:03:20.978Z,0.00
2017-06-05T02:04:20.982Z,0.00
2017-06-05T02:05:20.973Z,0.00
2017-06-05T02:06:20.978Z,0.00
2017-06-05T02:07:20.982Z,0.00
2017-06-05T02:08:20.987Z,0.00
2017-06-05T02:09:21.063Z,0.00
2017-06-05T02:10:20.985Z,0.00
2017-06-05T02:11:20.989Z,0.00
2017-06-05T02:12:20.987Z,0.00
2017-06-05T02:13:21.065Z,0.00
2017-06-05T02:14:21.199Z,0.00
2017-06-05T02:15:20.989Z,0.00
2017-06-05T02:16:20.987Z,0.00
2017-06-05T02:17:21.009Z,0.00
2017-06-05T02:18:20.994Z,0.00
2017-06-05T02:19:21.008Z,0.00
2017-06-05T02:20:20.974Z,0.00
2017-06-05T02:21:21.004Z,0.00
2017-06-05T02:22:21.002Z,0.00
2017-06-05T02:23:20.924Z,0.00
2017-06-05T02:24:20.994Z,0.00
2017-06-05T02:25:20.922Z,0.00
2017-06-05T02:26:21.003Z,0.00
2017-06-05T02:27:20.991Z,0.00
2017-06-05T02:28:21.003Z,0.00
2017-06-05T02:29:20.990Z,0.00
2017-06-05T02:30:20.995Z,0.00
2017-06-05T02:31:21.003Z,0.00
2017-06-05T02:32:20.993Z,0.00
2017-06-05T02:33:20.993Z,0.00
2017-06-05T02:34:20.996Z,0.00
2017-06-05T02:35:21.022Z,0.00
2017-06-05T02:36:20.997Z,0.00
2017-06-05T02:37:20.994Z,0.00
2017-06-05T02:38:20.998Z,0.00
2017-06-05T02:39:20.999Z,0.00
2017-06-05T02:40:20.996Z,0.00
2017-06-05T02:41:20.998Z,0.00
2017-06-05T02:42:21.004Z,0.00
2017-06-05T02:43:21.001Z,0.00
2017-06-05T02:44:21.001Z,0.00
2017-06-05T02:45:21.002Z,0.00
2017-06-05T02:46:21.000Z,0.00
2017-06-05T02:47:20.988Z,0.00
2017-06-05T02:48:20.990Z,0.00
2017-06-05T02:49:20.993Z,0.00
2017-06-05T02:50:20.995Z,0.00
2017-06-05T02:51:20.993Z,0.00
2017-06-05T02:52:20.994Z,0.00
2017-06-05T02:53:20.993Z,0.00
2017-06-05T02:54:20.999Z,0.00
2017-06-05T02:55:20.993Z,0.00
2017-06-05T02:56:20.991Z,0.00
2017-06-05T02:57:20.994Z,0.00
2017-06-05T02:58:21.027Z,0.00
2017-06-05T02:59:21.035Z,0.00
2017-06-05T03:00:21.023Z,0.00
2017-06-05T03:01:21.033Z,0.00
2017-06-05T03:02:20.994Z,0.00
2017-06-05T03:03:21.033Z,0.00
2017-06-05T03:04:20.994Z,0.00
2017-06-05T03:05:21.011Z,0.00
2017-06-05T03:06:21.028Z,0.00
2017-06-05T03:07:21.029Z,0.00
2017-06-05T03:08:21.035Z,0.00
2017-06-05T03:09:21.036Z,0.00
2017-06-05T03:10:21.045Z,0.00
2017-06-05T03:11:21.030Z,0.00
2017-06-05T03:12:21.019Z,0.00
2017-06-05T03:13:20.948Z,0.00
2017-06-05T03:14:21.024Z,0.00
2017-06-05T03:15:21.033Z,0.00
2017-06-05T03:16:20.953Z,0.00
2017-06-05T03:17:21.000Z,0.00
2017-06-05T03:18:21.008Z,0.00
2017-06-05T03:19:21.004Z,0.00
2017-06-05T03:20:21.003Z,0.00
2017-06-05T03:21:21.001Z,0.00
2017-06-05T03:22:21.009Z,0.00
2017-06-05T03:23:21.009Z,0.00
2017-06-05T03:24:21.008Z,0.00
2017-06-05T03:25:21.010Z,0.00
2017-06-05T03:26:21.007Z,0.00
2017-06-05T03:27:21.039Z,0.00
2017-06-05T03:28:21.054Z,0.00
2017-06-05T03:29:21.039Z,0.00
2017-06-05T03:30:20.950Z,0.00
2017-06-05T03:31:21.023Z,0.00
2017-06-05T03:32:21.025Z,0.00
2017-06-05T03:33:21.033Z,1.00
2017-06-05T03:34:20.965Z,1.00
2017-06-05T03:35:21.039Z,1.00
2017-06-05T03:36:21.045Z,0.00
2017-06-05T03:37:21.031Z,0.00
2017-06-05T03:38:21.028Z,0.00
2017-06-05T03:39:21.031Z,0.00
2017-06-05T03:40:21.081Z,0.00
2017-06-05T03:41:21.030Z,0.00
2017-06-05T03:42:21.041Z,0.00
2017-06-05T03:43:21.028Z,0.00
2017-06-05T03:44:21.029Z,0.00
2017-06-05T03:45:21.031Z,0.00
2017-06-05T03:46:21.027Z,1.00
2017-06-05T03:47:21.028Z,1.00
2017-06-05T03:48:21.030Z,1.00
2017-06-05T03:49:21.029Z,1.00
2017-06-05T03:50:21.030Z,1.00
2017-06-05T03:51:21.029Z,1.00
2017-06-05T03:52:21.032Z,1.00
2017-06-05T03:53:21.141Z,1.00
2017-06-05T03:54:21.031Z,1.00
2017-06-05T03:55:20.991Z,1.00
2017-06-05T03:56:21.038Z,1.00
2017-06-05T03:57:20.979Z,1.00
2017-06-05T03:58:20.933Z,1.00
2017-06-05T03:59:20.931Z,1.00
2017-06-05T04:00:20.977Z,1.00
2017-06-05T04:01:20.946Z,1.00
2017-06-05T04:02:20.932Z,1.00
2017-06-05T04:03:20.932Z,1.00
2017-06-05T04:04:20.933Z,1.00
2017-06-05T04:05:20.986Z,1.00
2017-06-05T04:06:20.937Z,2.00
2017-06-05T04:07:20.956Z,2.00
2017-06-05T04:08:20.974Z,2.00
2017-06-05T04:09:21.061Z,2.00
2017-06-05T04:10:21.069Z,2.00
2017-06-05T04:11:21.021Z,2.00
2017-06-05T04:12:20.971Z,2.00
2017-06-05T04:13:20.978Z,2.00
2017-06-05T04:14:20.971Z,3.00
2017-06-05T04:15:21.025Z,3.00
2017-06-05T04:16:21.008Z,3.00
2017-06-05T04:17:20.973Z,3.00
2017-06-05T04:18:21.032Z,3.00
2017-06-05T04:19:21.038Z,4.00
2017-06-05T04:20:21.034Z,4.00
2017-06-05T04:21:21.036Z,4.00
2017-06-05T04:22:21.032Z,4.00
2017-06-05T04:23:21.038Z,5.00
2017-06-05T04:24:21.041Z,5.00
2017-06-05T04:25:21.037Z,5.00
2017-06-05T04:26:21.043Z,5.00
2017-06-05T04:27:21.038Z,6.00
2017-06-05T04:28:20.991Z,6.00
2017-06-05T04:29:21.156Z,6.00
2017-06-05T04:30:21.047Z,7.00
2017-06-05T04:31:21.098Z,7.00
2017-06-05T04:32:20.995Z,8.00
2017-06-05T04:33:20.979Z,8.00
2017-06-05T04:34:21.048Z,8.00
2017-06-05T04:35:21.032Z,9.00
2017-06-05T04:36:21.064Z,9.00
2017-06-05T04:37:20.990Z,9.00
2017-06-05T04:38:21.054Z,9.00
2017-06-05T04:39:21.095Z,9.00
2017-06-05T04:40:21.076Z,9.00
2017-06-05T04:41:21.106Z,9.00
2017-06-05T04:42:20.990Z,9.00
2017-06-05T04:43:21.077Z,9.00
2017-06-05T04:44:21.094Z,8.00
2017-06-05T04:45:21.091Z,8.00
2017-06-05T04:46:21.081Z,7.00
2017-06-05T04:47:21.077Z,7.00
2017-06-05T04:48:21.002Z,7.00
2017-06-05T04:49:21.080Z,6.00
2017-06-05T04:50:21.063Z,6.00
2017-06-05T04:51:21.094Z,6.00
2017-06-05T04:52:21.090Z,6.00
2017-06-05T04:53:21.060Z,6.00
2017-06-05T04:54:21.041Z,6.00
2017-06-05T04:55:21.083Z,7.00
2017-06-05T04:56:21.088Z,7.00
2017-06-05T04:57:21.003Z,7.00
2017-06-05T04:58:21.091Z,7.00
2017-06-05T04:59:20.990Z,8.00
2017-06-05T05:00:20.988Z,8.00
2017-06-05T05:01:20.989Z,8.00
2017-06-05T05:02:21.038Z,8.00
2017-06-05T05:03:21.033Z,8.00
2017-06-05T05:04:21.000Z,8.00
2017-06-05T05:05:21.035Z,8.00
2017-06-05T05:06:20.980Z,8.00
2017-06-05T05:07:21.043Z,8.00
2017-06-05T05:08:21.074Z,8.00
2017-06-05T05:09:21.077Z,8.00
2017-06-05T05:10:21.075Z,8.00
2017-06-05T05:11:21.078Z,8.00
2017-06-05T05:12:21.054Z,8.00
2017-06-05T05:13:21.089Z,7.00
2017-06-05T05:14:21.076Z,7.00
2017-06-05T05:15:21.079Z,7.00
2017-06-05T05:16:21.078Z,7.00
2017-06-05T05:17:21.083Z,8.00
2017-06-05T05:18:21.096Z,8.00
2017-06-05T05:19:21.109Z,8.00
2017-06-05T05:20:21.074Z,8.00
2017-06-05T05:21:21.014Z,9.00
2017-06-05T05:22:21.097Z,9.00
2017-06-05T05:23:21.076Z,10.00
2017-06-05T05:24:21.022Z,10.00
2017-06-05T05:25:21.104Z,10.00
2017-06-05T05:26:21.056Z,11.00
2017-06-05T05:27:21.027Z,11.00
2017-06-05T05:28:21.088Z,11.00
2017-06-05T05:29:21.083Z,11.00
2017-06-05T05:30:21.086Z,11.00
2017-06-05T05:31:21.086Z,12.00
2017-06-05T05:32:21.085Z,12.00
2017-06-05T05:33:21.085Z,12.00
2017-06-05T05:34:21.085Z,12.00
2017-06-05T05:35:21.087Z,12.00
2017-06-05T05:36:21.090Z,12.00
2017-06-05T05:37:21.082Z,12.00
2017-06-05T05:38:21.084Z,12.00
2017-06-05T05:39:21.105Z,12.00
2017-06-05T05:40:21.105Z,12.00
2017-06-05T05:41:21.109Z,12.00
2017-06-05T05:42:21.072Z,12.00
2017-06-05T05:43:21.030Z,12.00
2017-06-05T05:44:21.100Z,13.00
2017-06-05T05:45:21.073Z,13.00
2017-06-05T05:46:21.111Z,12.00
2017-06-05T05:47:21.115Z,12.00
2017-06-05T05:48:21.083Z,12.00
2017-06-05T05:49:21.084Z,13.00
2017-06-05T05:50:21.086Z,13.00
2017-06-05T05:51:21.083Z,14.00
2017-06-05T05:52:21.088Z,14.00
2017-06-05T05:53:21.087Z,14.00
2017-06-05T05:54:21.089Z,15.00
2017-06-05T05:55:21.186Z,15.00
2017-06-05T05:56:21.087Z,17.00
2017-06-05T05:57:21.094Z,17.00
2017-06-05T05:58:21.121Z,18.00
2017-06-05T05:59:21.128Z,19.00
2017-06-05T06:00:21.036Z,20.00
2017-06-05T06:01:21.039Z,20.00
2017-06-05T06:02:21.149Z,21.00
2017-06-05T06:03:21.132Z,21.00
2017-06-05T06:04:21.041Z,23.00
2017-06-05T06:05:21.118Z,25.00
2017-06-05T06:06:21.037Z,27.00
2017-06-05T06:07:21.046Z,27.00
2017-06-05T06:08:21.130Z,29.00
2017-06-05T06:09:21.119Z,31.00
2017-06-05T06:10:21.048Z,29.00
2017-06-05T06:11:21.044Z,27.00
2017-06-05T06:12:21.044Z,26.00
2017-06-05T06:13:21.126Z,27.00
2017-06-05T06:14:21.130Z,26.00
2017-06-05T06:15:21.129Z,26.00
2017-06-05T06:16:21.128Z,27.00
2017-06-05T06:17:21.083Z,29.00
2017-06-05T06:18:21.098Z,31.00
2017-06-05T06:19:21.103Z,29.00
2017-06-05T06:20:21.101Z,27.00
2017-06-05T06:21:21.098Z,26.00
2017-06-05T06:22:21.098Z,26.00
2017-06-05T06:23:21.100Z,26.00
2017-06-05T06:24:21.101Z,28.00
2017-06-05T06:25:21.100Z,27.00
2017-06-05T06:26:21.097Z,28.00
2017-06-05T06:27:21.102Z,31.00
2017-06-05T06:28:21.099Z,31.00
2017-06-05T06:29:21.111Z,31.00
2017-06-05T06:30:21.052Z,30.00
2017-06-05T06:31:21.049Z,31.00
2017-06-05T06:32:21.098Z,30.00
2017-06-05T06:33:21.057Z,30.00
2017-06-05T06:34:21.136Z,28.00
2017-06-05T06:35:21.139Z,26.00
2017-06-05T06:36:21.052Z,25.00
2017-06-05T06:37:21.144Z,23.00
2017-06-05T06:38:21.053Z,23.00
2017-06-05T06:39:21.115Z,26.00
2017-06-05T06:40:21.116Z,24.00
2017-06-05T06:41:21.135Z,24.00
2017-06-05T06:42:21.146Z,26.00
2017-06-05T06:43:21.080Z,27.00
2017-06-05T06:44:21.135Z,26.00
2017-06-05T06:45:21.059Z,26.00
2017-06-05T06:46:21.056Z,29.00
2017-06-05T06:47:21.175Z,33.00
2017-06-05T06:48:21.145Z,38.00
2017-06-05T06:49:21.122Z,36.00
2017-06-05T06:50:21.153Z,36.00
2017-06-05T06:51:21.202Z,39.00
2017-06-05T06:52:21.143Z,37.00
2017-06-05T06:53:21.146Z,44.00
2017-06-05T06:54:21.110Z,41.00
2017-06-05T06:55:21.154Z,48.00
2017-06-05T06:56:21.119Z,41.00
2017-06-05T06:57:21.149Z,46.00
2017-06-05T06:58:21.125Z,42.00
2017-06-05T06:59:21.154Z,41.00
2017-06-05T07:00:21.107Z,41.00
2017-06-05T07:01:21.152Z,39.00
2017-06-05T07:02:21.145Z,40.00
2017-06-05T07:03:21.063Z,42.00
2017-06-05T07:04:21.066Z,50.00
2017-06-05T07:05:21.150Z,49.00
2017-06-05T07:06:21.160Z,46.00
2017-06-05T07:07:21.155Z,48.00
2017-06-05T07:08:21.144Z,51.00
2017-06-05T07:09:21.137Z,47.00
2017-06-05T07:10:21.141Z,47.00
2017-06-05T07:11:21.222Z,47.00
2017-06-05T07:12:21.142Z,48.00
2017-06-05T07:13:21.144Z,46.00
2017-06-05T07:14:21.144Z,43.00
2017-06-05T07:15:21.143Z,41.00
2017-06-05T07:16:21.140Z,42.00
2017-06-05T07:17:21.143Z,47.00
2017-06-05T07:18:21.150Z,44.00
2017-06-05T07:19:21.082Z,50.00
2017-06-05T07:20:21.167Z,49.00
2017-06-05T07:21:21.145Z,49.00
2017-06-05T07:22:21.171Z,50.00
2017-06-05T07:23:21.178Z,51.00
2017-06-05T07:24:21.092Z,52.00
2017-06-05T07:25:21.075Z,54.00
2017-06-05T07:26:21.082Z,55.00
2017-06-05T07:27:21.089Z,56.00
2017-06-05T07:28:21.158Z,57.00
2017-06-05T07:29:21.146Z,57.00
2017-06-05T07:30:21.148Z,57.00
2017-06-05T07:31:21.148Z,58.00
2017-06-05T07:32:21.132Z,55.00
2017-06-05T07:33:21.151Z,56.00
2017-06-05T07:34:21.150Z,56.00
2017-06-05T07:35:21.148Z,55.00
2017-06-05T07:36:21.147Z,56.00
2017-06-05T07:37:21.150Z,54.00
2017-06-05T07:38:21.152Z,50.00
2017-06-05T07:39:21.181Z,58.00
2017-06-05T07:40:21.178Z,62.00
2017-06-05T07:41:21.176Z,63.00
2017-06-05T07:42:21.205Z,70.00
2017-06-05T07:43:21.099Z,76.00
2017-06-05T07:44:21.102Z,77.00
2017-06-05T07:45:21.174Z,77.00
2017-06-05T07:46:21.175Z,69.00
2017-06-05T07:47:21.154Z,67.00
2017-06-05T07:48:21.156Z,64.00
2017-06-05T07:49:21.181Z,60.00
2017-06-05T07:50:21.178Z,59.00
2017-06-05T07:51:21.183Z,60.00
2017-06-05T07:52:21.186Z,65.00
2017-06-05T07:53:21.178Z,66.00
2017-06-05T07:54:21.181Z,63.00
2017-06-05T07:55:21.186Z,64.00
2017-06-05T07:56:21.104Z,61.00
2017-06-05T07:57:21.180Z,62.00
2017-06-05T07:58:21.144Z,65.00
2017-06-05T07:59:21.168Z,66.00
2017-06-05T08:00:21.106Z,67.00
2017-06-05T08:01:21.164Z,66.00
2017-06-05T08:02:21.164Z,71.00
2017-06-05T08:03:21.139Z,66.00
2017-06-05T08:04:21.165Z,63.00
2017-06-05T08:05:21.166Z,61.00
2017-06-05T08:06:21.173Z,63.00
2017-06-05T08:07:21.176Z,62.00
2017-06-05T08:08:21.167Z,60.00
2017-06-05T08:09:21.156Z,64.00
2017-06-05T08:10:21.161Z,63.00
2017-06-05T08:11:21.158Z,63.00
2017-06-05T08:12:21.165Z,63.00
2017-06-05T08:13:21.158Z,61.00
2017-06-05T08:14:21.159Z,59.00
2017-06-05T08:15:21.159Z,58.00
2017-06-05T08:16:21.162Z,53.00
2017-06-05T08:17:21.160Z,51.00
2017-06-05T08:18:21.164Z,51.00
2017-06-05T08:19:21.193Z,53.00
2017-06-05T08:20:21.110Z,52.00
2017-06-05T08:21:21.173Z,54.00
2017-06-05T08:22:21.193Z,53.00
2017-06-05T08:23:21.171Z,54.00
2017-06-05T08:24:21.193Z,54.00
2017-06-05T08:25:21.159Z,57.00
2017-06-05T08:26:21.121Z,55.00
2017-06-05T08:27:21.197Z,56.00
2017-06-05T08:28:21.197Z,55.00
2017-06-05T08:29:21.206Z,56.00
2017-06-05T08:30:21.121Z,58.00
2017-06-05T08:31:21.192Z,56.00
2017-06-05T08:32:21.123Z,56.00
2017-06-05T08:33:21.203Z,56.00
2017-06-05T08:34:21.117Z,57.00
2017-06-05T08:35:21.117Z,55.00
2017-06-05T08:36:21.124Z,53.00
2017-06-05T08:37:21.209Z,48.00
2017-06-05T08:38:21.118Z,46.00
2017-06-05T08:39:21.123Z,60.00
2017-06-05T08:40:21.183Z,60.00
2017-06-05T08:41:21.125Z,53.00
2017-06-05T08:42:21.125Z,55.00
2017-06-05T08:43:21.165Z,55.00
2017-06-05T08:44:21.188Z,53.00
2017-06-05T08:45:21.209Z,50.00
2017-06-05T08:46:21.113Z,47.00
2017-06-05T08:47:21.122Z,49.00
2017-06-05T08:48:21.221Z,50.00
2017-06-05T08:49:21.128Z,50.00
2017-06-05T08:50:21.209Z,50.00
2017-06-05T08:51:21.309Z,50.00
2017-06-05T08:52:21.211Z,49.00
2017-06-05T08:53:21.215Z,59.00
2017-06-05T08:54:21.212Z,51.00
2017-06-05T08:55:21.211Z,53.00
2017-06-05T08:56:21.130Z,52.00
2017-06-05T08:57:21.133Z,51.00
2017-06-05T08:58:21.212Z,51.00
2017-06-05T08:59:21.183Z,54.00
2017-06-05T09:00:21.188Z,54.00
2017-06-05T09:01:21.198Z,56.00
2017-06-05T09:02:21.184Z,52.00
2017-06-05T09:03:21.190Z,47.00
2017-06-05T09:04:21.186Z,52.00
2017-06-05T09:05:21.190Z,51.00
2017-06-05T09:06:21.189Z,48.00
2017-06-05T09:07:21.194Z,56.00
2017-06-05T09:08:21.187Z,56.00
2017-06-05T09:09:21.201Z,51.00
2017-06-05T09:10:21.202Z,51.00
2017-06-05T09:11:21.201Z,56.00
2017-06-05T09:12:21.203Z,57.00
2017-06-05T09:13:21.203Z,58.00
2017-06-05T09:14:21.233Z,57.00
2017-06-05T09:15:21.204Z,56.00
2017-06-05T09:16:21.204Z,56.00
2017-06-05T09:17:21.206Z,55.00
2017-06-05T09:18:21.121Z,55.00
2017-06-05T09:19:21.148Z,57.00
2017-06-05T09:20:21.111Z,58.00
2017-06-05T09:21:21.118Z,61.00
2017-06-05T09:22:21.206Z,64.00
2017-06-05T09:23:21.207Z,64.00
2017-06-05T09:24:21.168Z,64.00
2017-06-05T09:25:21.151Z,58.00
2017-06-05T09:26:21.168Z,62.00
2017-06-05T09:27:21.153Z,68.00
2017-06-05T09:28:21.127Z,68.00
2017-06-05T09:29:21.238Z,70.00
2017-06-05T09:30:21.244Z,66.00
2017-06-05T09:31:21.232Z,68.00
2017-06-05T09:32:21.232Z,70.00
2017-06-05T09:33:21.243Z,72.00
2017-06-05T09:34:21.211Z,71.00
2017-06-05T09:35:21.149Z,66.00
2017-06-05T09:36:21.239Z,68.00
2017-06-05T09:37:21.242Z,63.00
2017-06-05T09:38:21.223Z,60.00
2017-06-05T09:39:21.195Z,58.00
2017-06-05T09:40:21.238Z,57.00
2017-06-05T09:41:21.195Z,56.00
2017-06-05T09:42:21.243Z,54.00
2017-06-05T09:43:21.152Z,49.00
2017-06-05T09:44:21.204Z,53.00
2017-06-05T09:45:21.240Z,51.00
2017-06-05T09:46:21.243Z,50.00
2017-06-05T09:47:21.236Z,47.00
2017-06-05T09:48:21.148Z,45.00
2017-06-05T09:49:21.244Z,45.00
2017-06-05T09:50:21.248Z,46.00
2017-06-05T09:51:21.157Z,46.00
2017-06-05T09:52:21.202Z,46.00
2017-06-05T09:53:21.250Z,46.00
2017-06-05T09:54:21.237Z,45.00
2017-06-05T09:55:21.249Z,43.00
2017-06-05T09:56:21.165Z,45.00
2017-06-05T09:57:21.226Z,45.00
2017-06-05T09:58:21.210Z,44.00
2017-06-05T09:59:21.227Z,44.00
2017-06-05T10:00:21.309Z,45.00
2017-06-05T10:01:21.231Z,44.00
2017-06-05T10:02:21.230Z,42.00
2017-06-05T10:03:21.231Z,40.00
2017-06-05T10:04:21.232Z,44.00
2017-06-05T10:05:21.233Z,47.00
2017-06-05T10:06:21.234Z,47.00
2017-06-05T10:07:21.231Z,50.00
2017-06-05T10:08:21.234Z,48.00
2017-06-05T10:09:21.260Z,51.00
2017-06-05T10:10:21.176Z,56.00
2017-06-05T10:11:21.177Z,54.00
2017-06-05T10:12:21.253Z,57.00
2017-06-05T10:13:21.216Z,58.00
2017-06-05T10:14:21.170Z,53.00
2017-06-05T10:15:21.253Z,54.00
2017-06-05T10:16:21.255Z,61.00
2017-06-05T10:17:21.178Z,62.00
2017-06-05T10:18:21.255Z,64.00
2017-06-05T10:19:21.255Z,56.00
2017-06-05T10:20:21.265Z,50.00
2017-06-05T10:21:21.215Z,56.00
2017-06-05T10:22:21.217Z,56.00
2017-06-05T10:23:21.258Z,54.00
2017-06-05T10:24:21.254Z,52.00
2017-06-05T10:25:21.254Z,54.00
2017-06-05T10:26:21.218Z,51.00
2017-06-05T10:27:21.268Z,53.00
2017-06-05T10:28:21.172Z,50.00
2017-06-05T10:29:21.233Z,52.00
2017-06-05T10:30:21.230Z,48.00
2017-06-05T10:31:21.231Z,52.00
2017-06-05T10:32:21.232Z,52.00
2017-06-05T10:33:21.232Z,51.00
2017-06-05T10:34:21.238Z,51.00
2017-06-05T10:35:21.174Z,51.00
2017-06-05T10:36:21.233Z,50.00
2017-06-05T10:37:21.236Z,48.00
2017-06-05T10:38:21.265Z,46.00
2017-06-05T10:39:21.235Z,47.00
2017-06-05T10:40:21.235Z,46.00
2017-06-05T10:41:21.234Z,45.00
2017-06-05T10:42:21.237Z,46.00
2017-06-05T10:43:21.238Z,47.00
2017-06-05T10:44:21.239Z,46.00
2017-06-05T10:45:21.265Z,46.00
2017-06-05T10:46:21.238Z,45.00
2017-06-05T10:47:21.237Z,46.00
2017-06-05T10:48:21.239Z,44.00
2017-06-05T10:49:21.242Z,43.00
2017-06-05T10:50:21.275Z,41.00
2017-06-05T10:51:21.324Z,40.00
2017-06-05T10:52:21.274Z,40.00
2017-06-05T10:53:21.198Z,40.00
2017-06-05T10:54:21.277Z,42.00
2017-06-05T10:55:21.284Z,42.00
2017-06-05T10:56:21.272Z,38.00
2017-06-05T10:57:21.197Z,39.00
2017-06-05T10:58:21.282Z,38.00
2017-06-05T10:59:21.278Z,38.00
2017-06-05T11:00:21.260Z,39.00
2017-06-05T11:01:21.350Z,37.00
2017-06-05T11:02:21.264Z,33.00
2017-06-05T11:03:21.264Z,39.00
2017-06-05T11:04:21.279Z,34.00
2017-06-05T11:05:21.261Z,36.00
2017-06-05T11:06:21.266Z,35.00
2017-06-05T11:07:21.262Z,32.00
2017-06-05T11:08:21.264Z,31.00
2017-06-05T11:09:21.263Z,30.00
2017-06-05T11:10:21.186Z,31.00
2017-06-05T11:11:21.227Z,33.00
2017-06-05T11:12:21.222Z,37.00
2017-06-05T11:13:21.190Z,37.00
2017-06-05T11:14:21.230Z,37.00
2017-06-05T11:15:21.188Z,39.00
2017-06-05T11:16:21.293Z,42.00
2017-06-05T11:17:21.225Z,42.00
2017-06-05T11:18:21.230Z,41.00
2017-06-05T11:19:21.227Z,40.00
2017-06-05T11:20:21.290Z,42.00
2017-06-05T11:21:21.212Z,42.00
2017-06-05T11:22:21.247Z,40.00
2017-06-05T11:23:21.293Z,44.00
2017-06-05T11:24:21.286Z,43.00
2017-06-05T11:25:21.251Z,44.00
2017-06-05T11:26:21.292Z,44.00
2017-06-05T11:27:21.252Z,41.00
2017-06-05T11:28:21.294Z,43.00
2017-06-05T11:29:21.293Z,46.00
2017-06-05T11:30:21.275Z,46.00
2017-06-05T11:31:21.217Z,44.00
2017-06-05T11:32:21.299Z,42.00
2017-06-05T11:33:21.213Z,41.00
2017-06-05T11:34:21.236Z,41.00
2017-06-05T11:35:21.213Z,33.00
2017-06-05T11:36:21.218Z,33.00
2017-06-05T11:37:21.205Z,33.00
2017-06-05T11:38:21.278Z,37.00
2017-06-05T11:39:21.221Z,38.00
2017-06-05T11:40:21.294Z,37.00
2017-06-05T11:41:21.277Z,34.00
2017-06-05T11:42:21.262Z,35.00
2017-06-05T11:43:21.301Z,33.00
2017-06-05T11:44:21.295Z,34.00
2017-06-05T11:45:21.282Z,36.00
2017-06-05T11:46:21.311Z,38.00
2017-06-05T11:47:21.220Z,39.00
2017-06-05T11:48:21.302Z,40.00
2017-06-05T11:49:21.281Z,41.00
2017-06-05T11:50:21.272Z,41.00
2017-06-05T11:51:21.274Z,41.00
2017-06-05T11:52:21.277Z,40.00
2017-06-05T11:53:21.277Z,37.00
2017-06-05T11:54:21.271Z,41.00
2017-06-05T11:55:21.276Z,40.00
2017-06-05T11:56:21.276Z,38.00
2017-06-05T11:57:21.279Z,38.00
2017-06-05T11:58:21.279Z,38.00
2017-06-05T11:59:21.277Z,40.00
2017-06-05T12:00:21.310Z,41.00
2017-06-05T12:01:21.317Z,40.00
2017-06-05T12:02:21.316Z,40.00
2017-06-05T12:03:21.231Z,40.00
2017-06-05T12:04:21.233Z,42.00
2017-06-05T12:05:21.288Z,40.00
2017-06-05T12:06:21.319Z,40.00
2017-06-05T12:07:21.272Z,41.00
2017-06-05T12:08:21.315Z,40.00
2017-06-05T12:09:21.283Z,39.00
2017-06-05T12:10:21.283Z,37.00
2017-06-05T12:11:21.282Z,30.00
2017-06-05T12:12:21.285Z,29.00
2017-06-05T12:13:21.315Z,29.00
2017-06-05T12:14:21.289Z,29.00
2017-06-05T12:15:21.283Z,29.00
2017-06-05T12:16:21.288Z,29.00
2017-06-05T12:17:21.285Z,29.00
2017-06-05T12:18:21.294Z,29.00
2017-06-05T12:19:21.290Z,29.00
2017-06-05T12:20:21.299Z,29.00
2017-06-05T12:21:21.304Z,29.00
2017-06-05T12:22:21.305Z,29.00
2017-06-05T12:23:21.302Z,29.00
2017-06-05T12:24:21.404Z,28.00
2017-06-05T12:25:21.303Z,28.00
2017-06-05T12:26:21.309Z,28.00
2017-06-05T12:27:21.306Z,28.00
2017-06-05T12:28:21.309Z,28.00
2017-06-05T12:29:21.307Z,29.00
2017-06-05T12:30:21.245Z,30.00
2017-06-05T12:31:21.337Z,30.00
2017-06-05T12:32:21.330Z,31.00
2017-06-05T12:33:21.299Z,30.00
2017-06-05T12:34:21.233Z,32.00
2017-06-05T12:35:21.335Z,31.00
2017-06-05T12:36:21.240Z,33.00
2017-06-05T12:37:21.248Z,33.00
2017-06-05T12:38:21.338Z,35.00
2017-06-05T12:39:21.307Z,37.00
2017-06-05T12:40:21.312Z,38.00
2017-06-05T12:41:21.312Z,32.00
2017-06-05T12:42:21.316Z,30.00
2017-06-05T12:43:21.315Z,30.00
2017-06-05T12:44:21.311Z,30.00
2017-06-05T12:45:21.315Z,40.00
2017-06-05T12:46:21.332Z,44.00
2017-06-05T12:47:21.311Z,39.00
2017-06-05T12:48:21.318Z,52.00
2017-06-05T12:49:21.318Z,51.00
2017-06-05T12:50:21.314Z,55.00
2017-06-05T12:51:21.317Z,57.00
2017-06-05T12:52:21.324Z,57.00
2017-06-05T12:53:21.319Z,55.00
2017-06-05T12:54:21.327Z,55.00
2017-06-05T12:55:21.322Z,57.00
2017-06-05T12:56:21.322Z,55.00
2017-06-05T12:57:21.245Z,55.00
2017-06-05T12:58:21.318Z,29.00
2017-06-05T12:59:21.326Z,51.00
2017-06-05T13:00:21.323Z,51.00
2017-06-05T13:01:21.320Z,49.00
2017-06-05T13:02:21.323Z,48.00
2017-06-05T13:03:21.322Z,37.00